x

8447387 - Borden Flats Light At Fall River, Ma (bltm3) Weather Station

3:30 - Wed 3rd Jun 2015 All times are EDT. -4 hours from GMT.

  • Wind
    7mph, 9mph gusts
  • Air Temp 49°f
  • Sea Pressure 1021.8mb
  • 8447387 - Borden Flats Light At Fall River, Ma
  • 8447387 - Borden Flats Light At Fall River, Ma

More Historic Weather Station data

Upgrade to MSW Pro to gain access to the past 30 days of data for over 8000 Wavebouys and Weather Stations around the globe.

Join Pro

Comparision Forecast

View Surf forecast
   
mer. 06/03 3:30 7 9 mph 1021.8mb 49f
3:24 7 9 mph 1021.9mb 49f
3:18 7 9 mph 1022mb 49f
3:12 7 9 mph 1022mb 49f
3:06 6 8 mph 1021.9mb 49f
3:00 7 8 mph 1021.9mb 49f
2:54 6 8 mph 1021.8mb 49f
2:48 7 8 mph - -
2:42 7 8 mph - -
2:36 6 9 mph - -
2:30 5 6 mph - -
2:24 3 5 mph - -
2:18 5 7 mph - -
2:12 6 8 mph - -
2:06 7 9 mph - -
2:00  -  mph 1021.9mb 49f
1:54  -  mph 1021.8mb 49f
1:48 7 8 mph 1021.7mb 49f
1:42 9 11 mph 1021.6mb 49f
1:36 10 13 mph 1021.6mb 49f
1:30 11 15 mph 1021.6mb 49f
1:24 11 15 mph 1021.7mb 49f
1:18 13 14 mph 1021.7mb 49f
1:12 13 16 mph 1021.7mb 49f
1:06 10 14 mph 1021.8mb 49f
1:00 11 15 mph 1021.8mb 49f
12:54 11 15 mph 1021.8mb 49f
12:48 11 15 mph 1021.8mb 49f
12:42 10 13 mph 1021.9mb 49f
12:36 8 10 mph 1022.1mb 49f
12:30 8 10 mph 1022.1mb 49f
12:24 6 7 mph 1022.1mb 49f
12:18 6 8 mph 1022.2mb 49f
12:12 6 7 mph 1022.1mb 49f
12:06 6 8 mph 1022.1mb 49f
12:00 7 8 mph 1022.1mb 49f
mar. 06/02 11:54 7 8 mph 1022.1mb 49f
11:48 7 9 mph 1022.1mb 49f
11:42 6 8 mph 1022.2mb 49f
11:36 8 10 mph 1022mb 49f
11:30 10 11 mph 1021.8mb 49f
11:24 9 11 mph 1021.8mb 49f
11:18 8 11 mph 1021.7mb 49f
11:12 7 9 mph 1021.6mb 49f
11:06 10 13 mph 1021.7mb 49f
11:00 9 13 mph 1021.7mb 49f
10:54 9 11 mph 1021.7mb 49f
10:48 9 11 mph 1021.8mb 49f
10:42 9 13 mph 1021.7mb 49f
10:36 8 10 mph 1021.8mb 50f
10:30 8 11 mph 1021.9mb 50f
10:24 8 10 mph 1021.8mb 50f
10:18 10 13 mph 1021.7mb 50f
10:12 8 11 mph 1021.8mb 50f
10:06 7 11 mph 1021.8mb 50f
10:00 8 11 mph 1021.9mb 50f
9:54 9 13 mph 1021.9mb 50f
9:48 8 10 mph 1021.8mb 50f
9:42 8 10 mph 1021.8mb 50f
9:36 10 13 mph 1021.8mb 50f
9:30 11 15 mph 1021.7mb 50f
9:24 10 14 mph 1021.6mb 50f
9:18 9 13 mph 1021.5mb 50f
9:12 13 16 mph 1021.4mb 50f
9:06 13 15 mph 1021.4mb 50f
9:00 10 14 mph 1021.4mb 50f
8:54 9 13 mph 1021.3mb 50f
8:48 11 16 mph 1021.2mb 50f
8:42 11 14 mph 1021.3mb 50f
8:36 13 16 mph 1021.1mb 50f
8:30 13 20 mph 1021.2mb 50f
8:24 11 18 mph 1021.2mb 50f
8:18 15 22 mph 1021mb 50f
8:12 15 21 mph 1021mb 50f
8:06 14 17 mph 1020.9mb 50f
8:00 16 18 mph 1020.9mb 50f
7:54 13 17 mph 1021mb 50f
7:48 14 22 mph 1021mb 50f
7:42 14 17 mph 1021mb 50f
7:36 16 21 mph 1021mb 50f
7:30 14 20 mph 1021mb 50f
7:24 14 17 mph 1021mb 50f
7:18 13 17 mph 1020.9mb 50f
7:12 14 20 mph 1020.9mb 50f
7:06 15 20 mph 1020.9mb 51f
7:00 15 18 mph 1021mb 50f
6:54 13 16 mph 1020.9mb 51f
6:48 14 17 mph 1020.8mb 51f
6:42 15 22 mph 1020.7mb 51f
6:36 15 21 mph 1020.7mb 51f
6:30 13 17 mph 1020.8mb 51f
6:24 16 20 mph 1020.6mb 51f
6:18 16 22 mph 1020.5mb 51f
6:12 16 21 mph 1020.4mb 50f
6:06 16 20 mph 1020.3mb 51f
6:00 13 17 mph 1020.4mb 51f
5:54 16 21 mph 1020.3mb 50f
5:48 15 18 mph 1020.4mb 51f
5:42 15 21 mph 1020.4mb 51f
5:36 13 17 mph 1020.2mb 51f
5:30 14 20 mph 1020.2mb 51f
5:24 15 18 mph 1020.2mb 51f
5:18 15 21 mph 1020.2mb 50f
5:12 14 18 mph 1020.2mb 50f
5:06 14 17 mph 1020.2mb 51f
5:00 15 18 mph 1020.1mb 51f
4:54 18 22 mph 1019.9mb 51f
4:48 11 16 mph 1020mb 51f
4:42 15 17 mph 1020mb 51f
4:36 15 21 mph 1020mb 51f
4:30 18 22 mph 1019.9mb 51f
4:24 17 22 mph 1020.1mb 51f
4:18 15 18 mph 1020.2mb 50f
4:12 17 22 mph 1020.2mb 50f
4:06 16 21 mph 1020.2mb 51f
4:00 14 18 mph 1020.2mb 51f
3:54 13 17 mph 1020.2mb 51f
3:48 11 15 mph 1020.3mb 51f
3:42 14 18 mph 1020.2mb 51f
3:36 11 15 mph 1020.3mb 51f
3:30 14 18 mph 1020.2mb 51f
3:24 15 21 mph 1020.2mb 51f
3:18 17 23 mph 1020.2mb 51f
3:12 13 20 mph 1020.3mb 51f
3:06 14 17 mph 1020.3mb 51f
3:00 11 15 mph 1020.4mb 51f
2:54 15 18 mph 1020.4mb 51f
2:48 16 22 mph 1020.3mb 51f
2:42 16 23 mph 1020.3mb 51f
2:36 14 18 mph 1020.3mb 51f
2:30 14 18 mph 1020.3mb 51f
2:24 14 18 mph 1020.4mb 51f
2:18 21 26 mph 1020.3mb 51f
2:12 14 18 mph 1020.4mb 51f
2:06 16 21 mph 1020.4mb 51f
2:00 20 29 mph 1020.2mb 51f
1:54 17 23 mph 1020.3mb 52f
1:48 16 22 mph 1020.3mb 51f
1:42 16 21 mph 1020.3mb 51f
1:36 16 21 mph 1020.3mb 51f
1:30 18 22 mph 1020.3mb 51f
1:24 14 18 mph 1020.4mb 51f
1:18 15 22 mph 1020.5mb 51f
1:12 16 23 mph 1020.5mb 51f
1:06 15 20 mph 1020.6mb 51f
1:00 18 24 mph 1020.5mb 51f
12:54 13 20 mph 1020.7mb 51f
12:48 15 21 mph 1020.7mb 51f
12:42 13 15 mph 1020.7mb 51f
12:36 16 22 mph 1020.6mb 51f
12:30 13 18 mph 1020.6mb 51f
12:24 14 20 mph 1020.6mb 51f
12:18 13 16 mph 1020.7mb 51f
12:12 13 17 mph 1020.7mb 51f
12:06 15 18 mph 1020.5mb 51f
12:00 15 20 mph 1020.6mb 51f
11:54 15 20 mph 1020.4mb 50f
11:48 14 20 mph 1020.5mb 50f
11:42 15 18 mph 1020.6mb 50f
11:36 17 24 mph 1020.4mb 50f
11:30 14 20 mph 1020.5mb 50f
11:24 15 21 mph 1020.5mb 50f
11:18 15 21 mph 1020.6mb 50f
11:12 14 20 mph 1020.6mb 50f
11:06 11 16 mph 1020.6mb 50f
11:00 10 16 mph 1020.7mb 50f
10:54 13 17 mph 1020.5mb 50f
10:48 14 17 mph 1020.2mb 50f
10:42 15 18 mph 1020.2mb 50f
10:36 15 20 mph 1020.1mb 50f
10:30 13 18 mph 1020.3mb 50f
10:24 13 17 mph 1020.4mb 50f
10:18 15 21 mph 1020.3mb 50f
10:12 13 16 mph 1020.4mb 50f
10:06 15 20 mph 1020.2mb 50f
10:00 15 23 mph 1020.2mb 50f
9:54 14 18 mph 1020.2mb 50f
9:48 13 16 mph 1020.1mb 50f
9:42 14 17 mph 1020mb 50f
9:36 13 16 mph 1020.1mb 51f
9:30 14 18 mph 1020.1mb 50f
9:24 16 21 mph 1020mb 50f
9:18 16 21 mph 1020mb 50f
9:12 15 20 mph 1019.9mb 50f
9:06 15 22 mph 1019.9mb 50f
9:00 14 21 mph 1019.9mb 51f
8:54 15 22 mph 1019.8mb 50f
8:48 14 20 mph 1019.9mb 51f
8:42 16 21 mph 1019.8mb 50f
8:36 17 22 mph 1019.7mb 51f
8:30 17 25 mph 1019.6mb 50f
8:24 15 20 mph 1019.8mb 50f
8:18 13 16 mph 1019.9mb 50f
8:12 14 20 mph 1019.8mb 50f
8:06 13 17 mph 1019.9mb 50f
8:00 14 17 mph 1019.7mb 50f
7:54 15 21 mph 1019.7mb 50f
7:48 15 20 mph 1019.6mb 50f
7:42 14 18 mph 1019.8mb 49f
7:36 11 15 mph 1020mb 50f
7:30 13 16 mph 1020mb 50f
7:24 14 17 mph 1020.2mb 49f
7:18 14 20 mph 1020.3mb 50f
7:12 13 16 mph 1020.4mb 49f
7:06 11 16 mph 1020.4mb 49f
7:00 13 16 mph 1020.5mb 49f
6:54 10 14 mph 1020.4mb 49f
6:48 14 18 mph 1020.4mb 49f
6:42 11 15 mph 1020.3mb 49f
6:36 11 14 mph 1020.4mb 49f
6:30 9 15 mph 1020.3mb 49f
6:24 11 16 mph 1020.2mb 49f
6:18 10 14 mph 1020.1mb 49f
6:12 13 16 mph 1020mb 49f
6:06 14 20 mph 1019.8mb 49f
6:00 14 18 mph 1019.8mb 49f
5:54 14 20 mph 1019.8mb 49f
5:48 11 15 mph 1019.9mb 49f
5:42 13 16 mph 1019.9mb 50f
5:36 15 20 mph 1019.4mb 50f
5:30 15 22 mph 1019.6mb 50f
5:24 14 18 mph 1019.6mb 49f
5:18 14 18 mph 1019.7mb 49f
5:12 15 18 mph 1019.7mb 49f
5:06 11 15 mph 1019.7mb 49f
5:00 11 16 mph - 49f
4:54 13 18 mph - 50f
4:48 14 18 mph 1019.5mb 50f
4:42 16 22 mph 1019.5mb 50f
4:36 15 18 mph 1019.7mb 49f
4:30 15 18 mph 1019.7mb 49f
4:24 14 20 mph 1019.8mb 49f
4:18 14 17 mph 1019.9mb 49f
4:12 15 18 mph 1019.9mb 50f
4:06 14 20 mph 1019.9mb 49f
4:00 15 21 mph 1020mb 49f
3:54 16 18 mph 1020mb 49f
3:48 14 20 mph 1020.2mb 50f
3:42 14 20 mph 1020.3mb 49f
3:36 14 18 mph 1020.4mb 49f
3:30 14 18 mph 1020.3mb 49f
3:24 14 17 mph 1020.3mb 49f
3:18  -  mph 1020.4mb 50f
3:12  -  mph 1020.3mb 49f
3:06  -  mph 1020.4mb 49f
3:00 13 16 mph 1020.5mb 49f
2:54 13 18 mph 1020.5mb 50f
2:48  -  mph 1020.5mb -
2:42 13 16 mph 1020.6mb -
2:36 10 13 mph 1020.7mb -
2:30  -  mph 1020.8mb -
2:24  -  mph 1020.7mb -
2:18  -  mph - 50f
2:06  -  mph - 50f
2:00  -  mph - 50f
1:54  -  mph - 50f
1:48 13 18 mph 1020.8mb 50f
1:42 13 23 mph 1020.9mb 50f
1:36 13 15 mph 1020.9mb 50f
1:30 13 16 mph 1020.9mb 50f
1:24 13 16 mph 1021mb 50f
1:18 11 15 mph 1021.1mb 50f
1:12 14 17 mph 1021mb 50f
1:06 14 18 mph 1021.2mb 50f
1:00 15 18 mph 1021.2mb 51f
12:54 17 21 mph 1021.1mb 51f
12:48 16 21 mph 1021.1mb 50f
12:42 15 18 mph 1021.2mb 50f
12:36 15 18 mph 1021.3mb 50f
12:30 17 22 mph 1021.3mb 51f
12:24 15 18 mph 1021.5mb 50f
12:18 15 18 mph 1021.6mb 51f
12:12 15 18 mph 1021.5mb 51f
12:06 14 17 mph 1021.6mb 50f
12:00 15 18 mph 1021.5mb 50f
lun. 06/01 11:54 15 18 mph 1021.5mb 50f
11:48 15 18 mph 1021.5mb 50f
11:42 17 22 mph 1021.4mb 50f
11:36 18 24 mph 1021.5mb 50f
11:30 17 21 mph 1021.7mb 51f
11:24 17 22 mph 1021.8mb 50f
11:18 17 22 mph 1021.8mb 50f
11:12 16 22 mph 1022mb 50f
11:06 16 21 mph 1022.1mb 50f
11:00 17 23 mph 1022.1mb 50f
10:54 16 21 mph 1022.1mb 50f
10:48 16 20 mph 1022.2mb 50f
10:42 15 20 mph 1022.2mb 50f
10:36 15 18 mph 1022.1mb 51f
10:30 15 20 mph 1022.3mb 50f
10:24 15 21 mph 1022.3mb 50f
10:18 16 21 mph 1022.2mb 51f
10:12 16 18 mph 1022.2mb 51f
10:06 20 25 mph 1022.2mb 51f
10:00 16 21 mph 1022.2mb 51f
9:54 16 21 mph 1022.1mb 51f
9:48 20 22 mph 1022mb 51f
9:42 17 22 mph 1022.3mb 50f
9:36 18 23 mph 1022.2mb 51f
9:30 17 22 mph 1022.1mb 51f
9:24 16 21 mph 1022.2mb 51f
9:18 17 21 mph 1022.2mb 51f
9:12 18 24 mph 1022.1mb 51f
9:06 18 22 mph 1022.1mb 51f
9:00 17 23 mph 1022.1mb 51f
8:54 20 24 mph 1022.1mb 51f
8:48 17 21 mph 1022.1mb 51f
8:42 16 23 mph 1022.1mb 51f
8:36 20 23 mph 1021.9mb 51f
8:30 17 22 mph 1021.9mb 51f
8:24 17 23 mph 1021.9mb 51f
8:18 16 21 mph 1022mb 51f
8:12 15 18 mph 1022mb 51f
8:06 14 17 mph 1022.1mb 51f
8:00 15 20 mph 1022.1mb 51f
7:54 16 22 mph 1022.1mb 51f
7:48 15 18 mph 1022.2mb 51f
7:42 16 22 mph 1022.3mb 51f
7:36 15 21 mph 1022.4mb 51f
7:30 16 22 mph 1022.2mb 51f
7:24 16 21 mph 1022.2mb 51f
7:18 16 21 mph 1022.2mb 51f
7:12 16 21 mph 1022.2mb 51f
7:06 15 20 mph 1022.2mb 51f
7:00 16 20 mph 1022.2mb 51f
6:54 18 24 mph 1022.2mb 51f
6:48 16 20 mph 1022.2mb 51f
6:42 18 23 mph 1022.1mb 51f
6:36 17 23 mph 1022.1mb 52f
6:30 16 20 mph 1022.2mb 52f
6:24 16 22 mph 1022.1mb 52f
6:18 18 23 mph 1022mb 51f
6:12 21 26 mph 1021.9mb 51f
6:06 18 24 mph 1022.1mb 51f
6:00 20 24 mph 1022mb 51f
5:54 20 25 mph 1021.9mb 51f
5:48 17 23 mph 1021.9mb 51f
5:42 21 26 mph 1021.7mb 51f
5:36 18 22 mph 1021.8mb 52f
5:30 20 22 mph 1021.9mb 51f
5:24 21 26 mph 1022mb 52f
5:18 22 26 mph 1022.1mb 52f
5:12 20 26 mph 1022.2mb 51f
5:06 21 24 mph 1022mb 52f
5:00 18 23 mph 1022mb 52f
4:54 22 30 mph 1021.8mb 52f
4:48 22 28 mph 1022mb 52f
4:42 21 28 mph 1022mb 52f
4:36 22 25 mph 1021.9mb 52f
4:30 22 28 mph 1021.9mb 53f
4:24 21 26 mph 1022mb 52f
4:18 21 23 mph 1022.2mb 52f
4:12 22 25 mph 1022.2mb 52f
4:06 21 26 mph 1022.2mb 53f
4:00 18 22 mph 1022.2mb 53f
3:54 18 25 mph 1022.1mb 53f
3:48 20 24 mph 1022.1mb 53f
3:42 17 22 mph 1022.2mb 53f
3:36 21 24 mph 1022mb 53f
3:30 18 23 mph 1022mb 53f
3:24 18 26 mph 1022.1mb 53f
3:18 21 24 mph 1022.1mb 53f
3:12 20 24 mph 1022.1mb 54f
3:06 21 25 mph 1022.1mb 54f
3:00 23 26 mph 1022.1mb 54f
2:54 18 23 mph 1022.2mb 54f
2:48 17 22 mph 1022.3mb 53f
2:42 16 22 mph 1022.3mb 53f
2:36 17 22 mph 1022.2mb 54f
2:30 16 22 mph 1022.2mb 54f
2:24 16 20 mph 1022.2mb 54f
2:18 17 22 mph 1022.2mb 54f
2:12 17 23 mph 1022.1mb 54f
2:06 17 21 mph 1022.2mb 53f
2:00 20 23 mph 1022.2mb 54f
1:54 20 23 mph 1022.1mb 54f
1:48 16 22 mph 1022.2mb 53f
1:42 17 21 mph 1022.2mb 53f
1:36 17 22 mph 1022.3mb 53f
1:30 17 21 mph 1022.3mb 53f
1:24 17 23 mph 1022.3mb 53f
1:18 16 22 mph 1022.3mb 53f
1:12 16 20 mph 1022.3mb 54f
1:06 17 22 mph 1022.1mb 53f
1:00 20 22 mph 1022.2mb 53f
12:54 15 22 mph 1022.3mb 53f
12:48 16 20 mph 1022.4mb 53f
12:42 16 20 mph 1022.4mb 53f
12:36 15 20 mph 1022.4mb 53f
12:30 15 20 mph 1022.5mb 53f
12:24 17 20 mph 1022.5mb 53f
12:18 14 17 mph 1022.5mb 53f
12:12 13 16 mph 1022.6mb 53f
12:06 14 18 mph 1022.5mb 53f
12:00 14 17 mph 1022.4mb 53f
11:54 17 21 mph 1022.3mb 53f
11:48 14 16 mph 1022.4mb 53f
11:42 15 17 mph 1022.4mb 53f
11:36 15 20 mph 1022.4mb 53f
11:30 17 22 mph 1022.2mb 53f
11:24 17 20 mph 1022.3mb 53f
11:18 15 20 mph 1022.3mb 53f
11:12 17 20 mph 1022.3mb 53f
11:06 15 20 mph 1022.3mb 53f
11:00 16 20 mph 1022.3mb 53f
10:54 17 21 mph 1022.3mb 53f
10:48 15 18 mph 1022.3mb 53f
10:42 13 17 mph 1022.3mb 53f
10:36 15 18 mph 1022.3mb 53f
10:30 14 16 mph 1022.3mb 53f
10:24 16 20 mph 1022.2mb 53f
10:18 14 18 mph 1022.3mb 53f
10:12 17 21 mph 1022.4mb 53f
10:06 14 17 mph 1022.3mb 53f
10:00 14 18 mph 1022.2mb 53f
9:54 14 17 mph 1022.2mb 53f
9:48 13 14 mph 1022.1mb 53f
9:42 14 20 mph 1022.2mb 53f
9:36 16 21 mph 1022.2mb 53f
9:30 16 23 mph 1022mb 53f
9:24 16 20 mph 1022.1mb 53f
9:18 14 16 mph 1022.2mb 53f
9:12 14 15 mph 1022.3mb 53f
9:06 14 17 mph 1022.4mb 53f
9:00 13 16 mph 1022.5mb 53f
8:54 15 17 mph 1022.4mb 53f
8:48 16 22 mph 1022.4mb 53f
8:42 16 21 mph 1022.5mb 53f
8:36 14 20 mph 1022.5mb 53f
8:30 14 17 mph 1022.6mb 53f
8:24 13 16 mph 1022.7mb 53f
8:18 14 18 mph 1022.7mb 53f
8:12 14 16 mph 1022.7mb 53f
8:06 15 18 mph 1022.6mb 52f
8:00 11 14 mph 1022.8mb 52f
7:54 13 15 mph 1022.8mb 52f
7:48 14 17 mph 1022.9mb 52f
7:42 14 17 mph 1022.9mb 52f
7:36 14 16 mph 1022.8mb 52f
7:30 14 17 mph 1022.6mb 52f
7:24 14 17 mph 1022.6mb 52f
7:18 15 20 mph 1022.6mb 52f
7:12 15 18 mph 1022.5mb 52f
7:06 15 18 mph 1022.4mb 52f
7:00 13 15 mph 1022.4mb 52f
6:54 15 20 mph 1022.2mb 52f
6:48 15 20 mph 1022.2mb 52f
5:54 15 18 mph 1021.9mb 52f
5:48 15 20 mph 1021.9mb 52f
4:00 15 20 mph 1021.7mb -
3:54 17 21 mph 1021.6mb -
3:48 14 17 mph 1021.8mb -
3:42 15 18 mph 1021.9mb -
3:36 14 17 mph 1022mb -
3:30  -  mph 1022mb -
3:24  -  mph 1022.1mb -
3:18 15 18 mph 1022.1mb 51f
3:12 14 18 mph 1022.1mb 51f
3:06 14 17 mph 1022.2mb 51f
3:00 14 17 mph 1022.1mb 51f
2:54 13 16 mph 1022.1mb 51f
2:48  -  mph 1022.1mb -
2:42  -  mph 1022.2mb -
2:36  -  mph 1022.2mb -
2:30  -  mph - 51f
2:24  -  mph - 51f
2:18  -  mph - 51f
2:12  -  mph - 52f
2:06  -  mph - 52f
2:00 16 22 mph - -
1:54 16 18 mph - -
1:48 15 17 mph 1022.6mb 52f
1:42 16 18 mph 1022.6mb 51f
1:36 17 22 mph 1022.6mb 52f
1:30 16 21 mph 1022.6mb 52f
1:24 16 22 mph 1022.6mb 52f
1:18 17 22 mph 1022.6mb 52f
1:12 16 23 mph 1022.7mb 52f
1:06 15 21 mph 1022.8mb 52f
1:00 17 21 mph 1022.9mb 52f
12:54 18 24 mph 1022.9mb 52f
12:48 17 23 mph 1023mb 52f
12:42 17 23 mph 1022.9mb 51f
12:36 20 23 mph 1023mb 52f
12:30 16 21 mph 1023.2mb 52f
12:24 16 20 mph 1023.3mb 52f
12:18 16 22 mph 1023.4mb 52f
12:12 16 21 mph 1023.3mb 52f
12:06 16 22 mph 1023.4mb 52f
12:00 16 22 mph 1023.4mb 52f
dim. 05/31 11:54 17 23 mph 1023.4mb 52f
11:48 16 21 mph 1023.2mb 52f
11:42 17 20 mph 1023.3mb 52f
11:36 16 18 mph 1023.3mb 52f
11:30 16 21 mph 1023.4mb 52f
11:24 14 16 mph 1023.5mb 52f
11:18 17 23 mph 1023.4mb 52f
11:12 16 21 mph 1023.5mb 52f
11:06 17 22 mph 1023.4mb 52f
11:00 17 21 mph 1023.3mb 52f
10:54 18 25 mph 1023.4mb 52f
10:48 15 18 mph 1023.4mb 53f
10:42 17 21 mph 1023.3mb 52f
10:36 17 23 mph 1023.1mb 52f
10:30 18 22 mph 1023.1mb 52f
10:24 14 16 mph 1023.3mb 52f
10:18 16 20 mph 1023.2mb 52f
10:12 16 21 mph 1023.3mb 52f
10:06 15 20 mph 1023.3mb 53f
10:00 17 22 mph 1023.2mb 53f
9:54 18 22 mph 1023.2mb 52f
9:48 17 21 mph 1023.2mb 53f
9:42 17 22 mph 1023.1mb 53f
9:36 17 23 mph 1023mb 53f
9:30 16 20 mph 1022.9mb 53f
9:24 20 24 mph 1022.7mb 53f
9:18 17 23 mph 1022.8mb 53f
9:12 20 25 mph 1022.7mb 53f
9:06 18 23 mph 1022.5mb 53f
9:00 20 24 mph 1022.5mb 53f
8:54 20 23 mph 1022.5mb 53f
8:48 22 28 mph 1022.6mb 53f
8:42 21 26 mph 1022.5mb 53f
8:30 22 29 mph 1022.7mb 54f
8:24 21 25 mph 1022.6mb 54f
8:18 23 28 mph 1022.3mb 54f
8:12 21 26 mph 1022.4mb 54f
8:06 21 25 mph 1022.6mb 54f
8:00 18 23 mph 1022.4mb 54f
7:54 22 26 mph 1022.4mb 54f
7:48 23 30 mph 1022.2mb 54f
7:42 24 29 mph 1022.2mb 54f
7:36 21 25 mph 1022.2mb 55f
7:00 25 32 mph 1021.3mb 55f
6:54 23 33 mph 1021.3mb 56f
6:48 23 29 mph 1021.1mb 55f
6:42 23 31 mph 1020.8mb 56f
6:36 23 29 mph 1021mb 56f
6:30 22 30 mph 1021.1mb 56f
6:24 21 25 mph 1021mb 56f
6:18 24 34 mph 1020.5mb 56f
6:12 23 33 mph 1020.4mb 56f
6:06 23 29 mph 1020.4mb 56f
6:00 22 31 mph 1020.3mb 56f
5:54 26 33 mph 1019.9mb 56f
5:48 23 31 mph 1020.3mb 56f
5:42 24 29 mph 1019.8mb 57f
5:36 26 32 mph 1019.8mb 58f
5:30 23 29 mph 1020.1mb 58f
5:24 25 31 mph 1019.4mb 58f
5:18 24 30 mph 1019.3mb 59f
5:12 25 32 mph 1019.5mb 59f
5:06 22 26 mph 1019.3mb 59f
5:00 21 24 mph 1019.2mb 59f
4:54 26 33 mph 1018.9mb 60f
4:48 23 31 mph 1019mb 61f
4:42 23 31 mph 1018.9mb 63f
4:36 22 28 mph 1018.4mb 66f
4:30 5 6 mph 1017.9mb 71f
4:24 7 9 mph 1017.4mb 71f
4:18 9 11 mph 1017.4mb 72f
4:12 10 13 mph 1017.4mb 72f
4:06 8 10 mph 1017.5mb 72f
4:00 7 8 mph 1017.6mb 72f
3:54 8 10 mph 1017.5mb 72f
3:48 8 10 mph 1017.5mb 73f
3:42 7 10 mph 1017.6mb 72f
3:36 7 9 mph 1017.6mb 73f
3:30 6 8 mph 1017.6mb 73f
3:24 8 10 mph 1017.7mb 73f
3:18 7 9 mph 1017.6mb 73f
3:12 8 10 mph 1017.6mb 73f
3:06 8 10 mph 1017.6mb 73f
3:00 11 16 mph 1017.6mb 73f
2:54 9 11 mph 1017.7mb 73f
2:48 11 14 mph 1017.7mb 73f
2:42 11 16 mph 1017.8mb 73f
2:36 15 18 mph 1017.8mb 72f
2:30 14 18 mph 1017.7mb 73f
2:24 9 14 mph 1017.7mb 73f
2:18 11 16 mph 1017.6mb 73f
2:12 13 16 mph 1017.6mb 73f
2:06 14 17 mph 1017.6mb 73f
2:00 14 20 mph 1017.6mb 73f
1:54 14 20 mph 1017.6mb 73f
1:48 14 20 mph 1017.6mb 73f
1:42 16 23 mph 1017.6mb 73f
1:36 14 18 mph 1017.6mb 74f
1:30 14 17 mph 1017.6mb 74f
1:24 17 20 mph 1017.6mb 74f
1:18 15 18 mph 1017.6mb 73f
1:12 14 17 mph 1017.6mb 73f
1:06 13 16 mph 1017.6mb 73f
1:00 15 18 mph 1017.7mb 73f
12:54 15 20 mph 1017.7mb 73f
12:48 14 21 mph 1017.8mb 73f
12:42 14 18 mph 1017.7mb 73f
12:36 14 18 mph 1017.7mb 73f
12:30 14 16 mph 1017.7mb 73f
12:24 14 17 mph 1017.7mb 73f
12:18 15 20 mph 1017.8mb 72f
12:12 15 17 mph 1017.9mb 73f
12:06 14 20 mph 1017.8mb 73f
12:00 11 15 mph 1017.8mb 73f
11:54 11 14 mph 1017.9mb 73f
11:48 14 18 mph 1017.9mb 73f
11:42 15 18 mph 1017.8mb 72f
11:36 15 20 mph 1017.7mb 72f
11:30 16 21 mph 1017.7mb 72f
11:24 15 20 mph 1017.7mb 72f
11:18 14 18 mph 1017.7mb 72f
11:12 17 22 mph 1017.7mb 72f
11:06 18 22 mph 1017.7mb 71f
11:00 15 20 mph 1017.7mb 72f
10:54 15 20 mph 1017.7mb 72f
10:48 14 17 mph 1017.8mb 72f
10:42 15 18 mph 1017.7mb 71f
10:36 13 16 mph 1017.8mb 71f
10:30 16 20 mph 1017.7mb 70f
10:24 13 18 mph 1017.8mb 70f
10:18 15 18 mph 1017.8mb 70f
10:12 13 18 mph 1017.8mb 69f
10:06 13 16 mph 1017.8mb 69f
10:00 15 18 mph 1017.9mb 69f
9:54 15 18 mph 1017.9mb 69f
9:48 16 20 mph 1017.9mb 68f
9:42 17 22 mph 1017.9mb 68f
9:36 17 21 mph 1017.9mb 68f
9:30 17 20 mph 1018mb 68f
9:24 20 22 mph 1017.8mb 68f
9:18 17 21 mph 1017.9mb 68f
9:12 20 22 mph 1017.9mb 68f
9:06 21 23 mph 1017.8mb 68f
9:00 20 24 mph 1017.8mb 68f
8:54 21 26 mph 1017.6mb 68f
8:48 20 24 mph 1017.8mb 68f
8:42 21 24 mph 1017.7mb 68f
8:36 20 24 mph 1017.7mb 68f
8:30 20 24 mph 1017.7mb 68f
8:24 18 23 mph 1017.7mb 68f
8:18 20 23 mph 1017.7mb 68f
8:12 20 24 mph 1017.8mb 68f
8:06 20 24 mph 1017.7mb 67f
8:00 18 22 mph 1017.7mb 67f
7:54 21 24 mph 1017.6mb 67f
7:48 21 24 mph 1017.5mb 67f
7:42 21 26 mph 1017.6mb 67f
7:36 21 24 mph 1017.6mb 67f
7:30 18 23 mph 1017.6mb 67f
7:24 20 24 mph 1017.5mb 67f
7:18 20 24 mph 1017.6mb 67f
7:12 18 22 mph 1017.7mb 67f
7:06 22 25 mph 1017.5mb 67f
7:00 21 24 mph 1017.6mb 67f
6:54 18 22 mph 1017.6mb 67f
6:48 18 24 mph 1017.6mb 67f
6:42 18 23 mph 1017.6mb 67f
6:36 15 20 mph 1017.7mb 67f
6:30 18 22 mph 1017.7mb 67f
6:24 16 22 mph 1017.7mb 67f
6:18 17 22 mph 1017.7mb 66f
6:12 15 22 mph 1017.7mb 66f
6:06 16 22 mph 1017.7mb 66f
6:00 16 21 mph 1017.7mb 66f
5:54 15 18 mph 1017.8mb 66f
5:48 13 16 mph 1017.9mb 66f
5:42 13 16 mph 1017.9mb 66f
5:36 11 16 mph 1017.8mb 66f
5:30 13 16 mph 1017.7mb 66f
5:24 13 16 mph 1017.7mb 66f
5:18 11 14 mph 1017.8mb 66f
5:12 10 14 mph 1017.8mb 66f
5:06 11 14 mph 1017.9mb 66f
5:00 10 14 mph 1018mb 66f
4:54 10 11 mph 1018.1mb 66f
4:48 10 13 mph 1018.1mb 65f
4:42 10 11 mph 1018.1mb 65f
4:36 10 11 mph 1018.2mb 66f
4:30 10 13 mph 1018.1mb 66f
4:24 11 14 mph 1018mb 66f
4:18 13 15 mph 1018mb 66f
4:12 13 17 mph 1017.9mb 66f
4:06 14 16 mph 1017.8mb 66f
4:00 15 20 mph 1017.8mb 66f
3:54 14 17 mph 1017.8mb 66f
3:48 15 17 mph 1017.9mb 65f
3:42 14 17 mph 1017.9mb 65f
3:36 15 21 mph 1017.8mb 66f
3:30 16 21 mph 1017.7mb 66f
3:24 15 20 mph 1017.8mb 66f
3:18 16 22 mph 1017.8mb 66f
3:12 18 23 mph 1017.6mb 66f
3:06 20 23 mph 1017.6mb 66f
3:00 18 24 mph 1017.6mb 66f
2:54 18 23 mph 1017.7mb 66f
2:48 20 26 mph 1017.7mb 66f
2:42 20 26 mph 1017.7mb 66f
2:36 22 30 mph 1017.6mb 66f
2:30 20 25 mph 1017.9mb 66f
2:24 21 24 mph 1017.9mb 66f
2:18 20 28 mph 1017.9mb 66f
2:12 18 24 mph 1017.9mb 66f
2:06 20 26 mph 1018mb 66f
2:00 17 22 mph 1018.1mb 66f
1:54 16 21 mph 1018.2mb 66f
1:48 17 24 mph 1018.1mb 66f
1:42 16 21 mph 1018.3mb 66f
1:36 17 21 mph 1018.4mb 66f
1:30 17 23 mph 1018.2mb 66f
1:24 16 22 mph 1018.3mb 66f
1:18 18 22 mph 1018.1mb 66f
1:12 16 22 mph 1018.2mb 66f
1:06 16 21 mph 1018.3mb 66f
1:00 16 21 mph 1018.3mb 66f
12:54 16 21 mph 1018.4mb 66f
12:48 16 20 mph 1018.5mb 66f
12:42 17 22 mph 1018.6mb 66f
12:36 15 21 mph 1018.8mb 66f
12:30 16 20 mph 1018.8mb 66f
12:24 18 22 mph 1018.9mb 66f
12:18 18 22 mph 1018.9mb 66f
12:12 15 18 mph 1019mb 67f
12:06 15 17 mph 1019mb 66f
12:00 15 20 mph 1018.9mb 67f
sam. 05/30 11:54 17 21 mph 1018.9mb 67f
11:48 15 21 mph 1019mb 67f
11:42 16 18 mph 1018.9mb 67f
11:36 16 21 mph 1018.8mb 67f
11:30 15 18 mph 1018.8mb 67f
11:24 17 21 mph 1018.7mb 66f
11:18 16 21 mph 1018.7mb 66f
11:12 16 21 mph 1018.8mb 66f
11:06 17 21 mph 1018.8mb 66f
11:00 20 23 mph 1018.9mb 67f
10:54 21 24 mph 1018.8mb 66f
10:48 18 24 mph 1018.8mb 67f
10:42 20 23 mph 1018.8mb 66f
10:36 20 23 mph 1018.8mb 67f
10:30 20 22 mph 1018.9mb 67f
10:24 21 24 mph 1018.8mb 67f
10:18 21 24 mph 1018.8mb 67f
10:12 20 22 mph 1018.8mb 67f
10:06 18 21 mph 1018.8mb 67f
10:00 20 22 mph 1018.8mb 67f
9:54 16 22 mph 1018.8mb 67f
9:48 20 25 mph 1018.6mb 67f
9:42 15 18 mph 1018.9mb 67f
9:36 16 22 mph 1018.7mb 66f
9:30 16 21 mph 1018.7mb 66f
9:24 17 20 mph 1018.7mb 66f
9:18 17 20 mph 1018.6mb 66f
9:12 17 21 mph 1018.6mb 66f
9:06 18 21 mph 1018.5mb 67f
9:00 18 22 mph 1018.5mb 67f
8:54 20 23 mph 1018.5mb 67f
8:48 18 22 mph 1018.5mb 67f
8:42 20 23 mph 1018.5mb 67f
8:36 21 26 mph 1018.4mb 68f
8:30 21 23 mph 1018.5mb 68f
8:24 20 24 mph 1018.6mb 68f
8:18 21 26 mph 1018.6mb 68f
8:12 20 23 mph 1018.6mb 68f
8:06 20 25 mph 1018.6mb 68f
8:00 20 26 mph 1018.6mb 68f
7:54 21 28 mph 1018.6mb 69f
7:48 22 26 mph 1018.6mb 69f
7:42 22 26 mph 1018.7mb 69f
7:36 22 28 mph 1018.7mb 69f
7:30 22 28 mph 1018.8mb 69f
7:18 22 31 mph 1018.7mb 70f
7:12 24 31 mph 1018.6mb 70f
7:06 21 24 mph 1018.8mb 70f
7:00 21 25 mph 1018.8mb 71f
6:54 23 28 mph 1018.7mb 71f
6:48 24 31 mph 1018.7mb 71f
6:42 24 30 mph 1018.7mb 71f
6:36 24 29 mph 1018.6mb 71f
6:30 22 30 mph 1018.8mb 71f
6:24 23 30 mph 1018.8mb 71f
6:18 24 32 mph 1018.8mb 71f
6:12 23 30 mph 1018.8mb 72f
6:06 23 29 mph 1018.8mb 72f
6:00 21 26 mph 1018.9mb 72f
5:54 22 26 mph 1018.8mb 72f
5:48 22 31 mph 1018.9mb 72f
5:42 23 30 mph 1018.9mb 72f
5:36 22 28 mph 1018.9mb 72f
5:30 23 31 mph 1018.8mb 72f
5:24 22 29 mph 1019mb 72f
5:18 23 30 mph 1019mb 72f
5:12 21 28 mph 1019.4mb 73f
5:06 22 30 mph 1019.4mb 72f
5:00 23 30 mph 1019.5mb 73f
4:54 23 29 mph 1019.5mb 73f
4:48 23 29 mph 1019.5mb 73f
4:42 23 32 mph 1019.5mb 73f
4:36 22 29 mph 1019.5mb 73f
4:30 23 29 mph 1019.5mb 73f
4:24 24 30 mph 1019.5mb 73f
4:18 23 28 mph 1019.6mb 73f
4:12 23 29 mph 1019.6mb 73f
4:06 24 31 mph 1019.7mb 73f
4:00 23 30 mph 1019.8mb 73f
3:54 24 29 mph 1019.8mb 73f
3:48 25 30 mph 1019.9mb 73f
3:42 24 31 mph 1019.9mb 73f
3:36 24 30 mph 1020mb 73f
3:30 23 30 mph 1020.1mb 73f
3:24 23 31 mph 1020mb 74f
3:18 25 31 mph 1019.9mb 74f
3:12 23 29 mph 1020.2mb 74f
3:06 22 29 mph 1020.2mb 74f
3:00 22 26 mph 1020.1mb 74f
2:54 22 29 mph 1020.2mb 74f
2:48 22 25 mph 1020.3mb 74f
2:42 22 29 mph 1020.4mb 73f
2:36 22 28 mph 1020.6mb 74f
2:30 23 29 mph 1020.6mb 73f
2:24 23 28 mph 1020.7mb 73f
2:18 22 31 mph 1020.7mb 74f
2:12 21 28 mph 1020.8mb 74f
2:06 22 28 mph 1020.7mb 74f
2:00 22 31 mph 1020.8mb 74f
1:54 20 29 mph 1020.8mb 74f
1:48 18 25 mph 1020.9mb 74f
1:42 22 26 mph 1020.9mb 74f
1:36 20 25 mph 1021mb 74f
1:30 17 23 mph 1021.1mb 74f
1:24 20 25 mph 1021.1mb 74f
1:18 18 23 mph 1021.2mb 74f
1:12 18 23 mph 1021.3mb 74f
1:06 18 23 mph 1021.3mb 74f
1:00 18 22 mph 1021.3mb 74f
12:54 20 24 mph 1021.3mb 74f
12:48 21 24 mph 1021.4mb 74f
12:42 22 25 mph 1021.3mb 74f
12:36 21 25 mph 1021.4mb 74f
12:30 20 22 mph 1021.5mb 74f
12:24 20 23 mph 1021.6mb 73f
12:18 18 21 mph 1021.7mb 73f
12:12 18 21 mph 1021.8mb 73f
12:06 18 21 mph 1021.9mb 72f
12:00 17 20 mph 1022mb 72f
11:54 16 18 mph 1022.2mb 72f
11:48 16 18 mph 1022.2mb 71f
11:42 17 20 mph 1022.3mb 72f
11:36 17 20 mph 1022.3mb 71f
11:30 16 17 mph 1022.4mb 71f
11:24 15 17 mph 1022.5mb 71f
11:18 15 17 mph 1022.6mb 70f
11:12 15 16 mph 1022.6mb 70f
11:06 15 16 mph 1022.7mb 69f
11:00 14 16 mph 1022.7mb 69f
10:54 15 18 mph 1022.7mb 69f
10:48 14 16 mph 1022.7mb 68f
10:42 14 15 mph 1022.8mb 67f
10:36 11 14 mph 1022.9mb 67f
10:30 13 15 mph 1023mb 67f
10:24 11 13 mph 1023mb 66f
10:18 11 14 mph 1023.1mb 66f
10:12 11 14 mph 1023.1mb 66f
10:06 14 15 mph 1023.1mb 66f
10:00 14 15 mph 1023.2mb 66f
9:54 13 15 mph 1023.1mb 65f
9:48 13 14 mph 1023.2mb 65f
9:42 15 16 mph 1023.1mb 65f
9:36 13 15 mph 1023.2mb 64f
9:30 11 15 mph 1023.2mb 64f
9:24 14 16 mph 1023.2mb 64f
9:18 14 16 mph 1023mb 64f
9:12 14 16 mph 1023.1mb 64f
9:06 14 16 mph 1023.1mb 64f
9:00 11 13 mph 1023.2mb 64f
8:54 11 13 mph 1023.2mb 63f
8:48 11 14 mph 1023.3mb 63f
8:42 11 13 mph 1023.2mb 63f
8:36 11 14 mph 1023.2mb 62f
8:30 11 14 mph 1023.3mb 62f
8:24 11 14 mph 1023.3mb 62f